Cap Ferrato — 9HA3174 — position and weather

sailwx.info

Track history (hours):
 
Tides and Currents Weather Stations Pressure Air Temp Water Temp Dewpoint Dewpoint Depression Visibility Wind Speed Wind Dir Waves Ship Positions

Cap Ferrato

Last reported at 2018-Feb-22 17:07 UTC. Time now 2018-Feb-23 16:32 UTC.
Position N 23°06' E 117°15'.

Length 256 m; draft 10.4 m.

Type: Ship (hazmat cat A). MMSI: 229249000.

Date/timePositionNaut miles runAvg speedWind from/ knotsBaromVisibWave heightAir tempDewpointWater temp
2018-Feb-22 17:07N 23°06' E 117°15'216.3
2018-Feb-22 17:00N 23°07' E 117°17'815.9
2018-Feb-22 16:30N 23°12' E 117°23'815.9
2018-Feb-22 16:00N 23°17' E 117°30'815.7
2018-Feb-22 15:30N 23°23' E 117°36'815.7
2018-Feb-22 15:00N 23°27' E 117°43'815.8
2018-Feb-22 14:31N 23°32' E 117°50'816.0
2018-Feb-22 14:00N 23°38' E 117°56'816.4
2018-Feb-22 13:30N 23°43' E 118°03'816.5
2018-Feb-22 13:00N 23°48' E 118°10'816.7
2018-Feb-22 12:30N 23°56' E 118°14'917.1
2018-Feb-22 12:00N 24°04' E 118°18'815.2
2018-Feb-22 11:30N 24°11' E 118°19'816.3
2018-Feb-22 11:01N 24°17' E 118°13'815.9
2018-Feb-22 10:31N 24°23' E 118°07'510.8
2018-Feb-22 10:00N 24°27' E 118°03'4 8.4
2018-Feb-22 09:30N 24°31' E 118°05'0 0.2
2018-Feb-22 08:58N 24°31' E 118°05'0 0.0
2018-Feb-22 08:28N 24°31' E 118°05'0 0.0
2018-Feb-22 07:58N 24°31' E 118°05'0 0.1
2018-Feb-22 07:28N 24°31' E 118°05'0 0.1
2018-Feb-22 06:58N 24°31' E 118°05'0 0.0
2018-Feb-22 06:28N 24°31' E 118°05'0 0.1
2018-Feb-22 05:58N 24°31' E 118°05'0 0.1
2018-Feb-22 05:28N 24°31' E 118°05'0 0.0
2018-Feb-22 04:58N 24°31' E 118°05'0 0.0
2018-Feb-22 04:29N 24°31' E 118°05'0 0.0
2018-Feb-22 03:58N 24°31' E 118°05'0 0.0
2018-Feb-22 03:28N 24°31' E 118°05'0 0.8
2018-Feb-22 03:00N 24°31' E 118°04'5 9.3
2018-Feb-22 02:30N 24°26' E 118°03'712.9
2018-Feb-22 02:00N 24°22' E 118°09'714.2
2018-Feb-22 01:30N 24°17' E 118°14'713.0
2018-Feb-22 01:00N 24°12' E 118°18'714.0
2018-Feb-22 00:30N 24°08' E 118°25'815.7
2018-Feb-21 23:59N 24°05' E 118°33'715.2
2018-Feb-21 23:30N 24°01' E 118°40'3515.6
2018-Feb-21 21:18N 23°42' E 119°11'516.6
2018-Feb-21 20:58N 23°38' E 119°16'716.1
2018-Feb-21 20:30N 23°33' E 119°22'815.5
2018-Feb-21 20:00N 23°28' E 119°28'815.8
2018-Feb-21 19:30N 23°24' E 119°36'816.2
2018-Feb-21 19:00N 23°20' E 119°43'916.9
2018-Feb-21 18:29N 23°15' E 119°51'1018.1
2018-Feb-21 17:58N 23°06' E 119°53'818.5
2018-Feb-21 17:30N 22°58' E 119°55'1019.0
2018-Feb-21 17:00N 22°49' E 120°00'1019.3
2018-Feb-21 16:30N 22°41' E 120°06'918.1
2018-Feb-21 16:01N 22°34' E 120°11'713.6
2018-Feb-21 15:30N 22°33' E 120°19'1 1.6
2018-Feb-21 15:00N 22°34' E 120°19'0 0.1
2018-Feb-21 14:28N 22°34' E 120°19'0 0.0
2018-Feb-21 13:58N 22°34' E 120°19'0 0.0
2018-Feb-21 13:28N 22°34' E 120°19'0 0.0
2018-Feb-21 12:55N 22°34' E 120°19'0 0.0
2018-Feb-21 12:28N 22°34' E 120°19'0 0.0
2018-Feb-21 11:58N 22°34' E 120°19'0 0.0
2018-Feb-21 11:28N 22°34' E 120°19'0 0.0
2018-Feb-21 10:58N 22°34' E 120°19'0 0.0
2018-Feb-21 10:28N 22°34' E 120°19'0 0.0
2018-Feb-21 09:58N 22°34' E 120°19'0 0.0
2018-Feb-21 09:22N 22°34' E 120°19'0 0.0
2018-Feb-21 08:58N 22°34' E 120°19'0 0.0
2018-Feb-21 08:28N 22°34' E 120°19'0 0.0
2018-Feb-21 07:58N 22°34' E 120°19'0 0.0
2018-Feb-21 07:28N 22°34' E 120°19'0 0.0
2018-Feb-21 06:58N 22°34' E 120°19'0 0.0
2018-Feb-21 06:28N 22°34' E 120°19'0 0.0
2018-Feb-21 05:58N 22°34' E 120°19'0 0.0
2018-Feb-21 05:28N 22°34' E 120°19'0 0.0
2018-Feb-21 04:58N 22°34' E 120°19'0 0.0
2018-Feb-21 04:28N 22°34' E 120°19'0 0.0
2018-Feb-21 03:58N 22°34' E 120°19'0 0.0
2018-Feb-21 03:28N 22°34' E 120°19'0 0.0
2018-Feb-21 02:58N 22°34' E 120°19'0 0.0
2018-Feb-21 02:22N 22°34' E 120°19'0 0.0
2018-Feb-21 01:58N 22°34' E 120°19'1 1.7
2018-Feb-21 01:30N 22°33' E 120°19'5 9.1
2018-Feb-21 01:00N 22°32' E 120°14'4 7.6
2018-Feb-21 00:31N 22°28' E 120°13'612.8
2018-Feb-21 00:00N 22°22' E 120°14'612.7
2018-Feb-20 23:31N 22°16' E 120°16'612.7
2018-Feb-20 23:00N 22°10' E 120°18'612.7
2018-Feb-20 22:31N 22°03' E 120°19'  
Track history (hours):
 
Tides and Currents Weather Stations Pressure Air Temp Water Temp Dewpoint Dewpoint Depression Visibility Wind Speed Wind Dir Waves Ship Positions

Cap Ferrato

Last reported at 2018-Feb-22 17:07 UTC. Time now 2018-Feb-23 16:32 UTC.
Position N 23°06' E 117°15'.

Length 256 m; draft 10.4 m.

Type: Ship (hazmat cat A). MMSI: 229249000.

Date/timePositionNaut miles runAvg speedWind from/ knotsBaromVisibWave heightAir tempDewpointWater temp
2018-Feb-22 17:07N 23°06' E 117°15'216.3
2018-Feb-22 17:00N 23°07' E 117°17'815.9
2018-Feb-22 16:30N 23°12' E 117°23'815.9
2018-Feb-22 16:00N 23°17' E 117°30'815.7
2018-Feb-22 15:30N 23°23' E 117°36'815.7
2018-Feb-22 15:00N 23°27' E 117°43'815.8
2018-Feb-22 14:31N 23°32' E 117°50'816.0
2018-Feb-22 14:00N 23°38' E 117°56'816.4
2018-Feb-22 13:30N 23°43' E 118°03'816.5
2018-Feb-22 13:00N 23°48' E 118°10'816.7
2018-Feb-22 12:30N 23°56' E 118°14'917.1
2018-Feb-22 12:00N 24°04' E 118°18'815.2
2018-Feb-22 11:30N 24°11' E 118°19'816.3
2018-Feb-22 11:01N 24°17' E 118°13'815.9
2018-Feb-22 10:31N 24°23' E 118°07'510.8
2018-Feb-22 10:00N 24°27' E 118°03'4 8.4
2018-Feb-22 09:30N 24°31' E 118°05'0 0.2
2018-Feb-22 08:58N 24°31' E 118°05'0 0.0
2018-Feb-22 08:28N 24°31' E 118°05'0 0.0
2018-Feb-22 07:58N 24°31' E 118°05'0 0.1
2018-Feb-22 07:28N 24°31' E 118°05'0 0.1
2018-Feb-22 06:58N 24°31' E 118°05'0 0.0
2018-Feb-22 06:28N 24°31' E 118°05'0 0.1
2018-Feb-22 05:58N 24°31' E 118°05'0 0.1
2018-Feb-22 05:28N 24°31' E 118°05'0 0.0
2018-Feb-22 04:58N 24°31' E 118°05'0 0.0
2018-Feb-22 04:29N 24°31' E 118°05'0 0.0
2018-Feb-22 03:58N 24°31' E 118°05'0 0.0
2018-Feb-22 03:28N 24°31' E 118°05'0 0.8
2018-Feb-22 03:00N 24°31' E 118°04'5 9.3
2018-Feb-22 02:30N 24°26' E 118°03'712.9
2018-Feb-22 02:00N 24°22' E 118°09'714.2
2018-Feb-22 01:30N 24°17' E 118°14'713.0
2018-Feb-22 01:00N 24°12' E 118°18'714.0
2018-Feb-22 00:30N 24°08' E 118°25'815.7
2018-Feb-21 23:59N 24°05' E 118°33'715.2
2018-Feb-21 23:30N 24°01' E 118°40'3515.6
2018-Feb-21 21:18N 23°42' E 119°11'516.6
2018-Feb-21 20:58N 23°38' E 119°16'716.1
2018-Feb-21 20:30N 23°33' E 119°22'815.5
2018-Feb-21 20:00N 23°28' E 119°28'815.8
2018-Feb-21 19:30N 23°24' E 119°36'816.2
2018-Feb-21 19:00N 23°20' E 119°43'916.9
2018-Feb-21 18:29N 23°15' E 119°51'1018.1
2018-Feb-21 17:58N 23°06' E 119°53'818.5
2018-Feb-21 17:30N 22°58' E 119°55'1019.0
2018-Feb-21 17:00N 22°49' E 120°00'1019.3
2018-Feb-21 16:30N 22°41' E 120°06'918.1
2018-Feb-21 16:01N 22°34' E 120°11'713.6
2018-Feb-21 15:30N 22°33' E 120°19'1 1.6
2018-Feb-21 15:00N 22°34' E 120°19'0 0.1
2018-Feb-21 14:28N 22°34' E 120°19'0 0.0
2018-Feb-21 13:58N 22°34' E 120°19'0 0.0
2018-Feb-21 13:28N 22°34' E 120°19'0 0.0
2018-Feb-21 12:55N 22°34' E 120°19'0 0.0
2018-Feb-21 12:28N 22°34' E 120°19'0 0.0
2018-Feb-21 11:58N 22°34' E 120°19'0 0.0
2018-Feb-21 11:28N 22°34' E 120°19'0 0.0
2018-Feb-21 10:58N 22°34' E 120°19'0 0.0
2018-Feb-21 10:28N 22°34' E 120°19'0 0.0
2018-Feb-21 09:58N 22°34' E 120°19'0 0.0
2018-Feb-21 09:22N 22°34' E 120°19'0 0.0
2018-Feb-21 08:58N 22°34' E 120°19'0 0.0
2018-Feb-21 08:28N 22°34' E 120°19'0 0.0
2018-Feb-21 07:58N 22°34' E 120°19'0 0.0
2018-Feb-21 07:28N 22°34' E 120°19'0 0.0
2018-Feb-21 06:58N 22°34' E 120°19'0 0.0
2018-Feb-21 06:28N 22°34' E 120°19'0 0.0
2018-Feb-21 05:58N 22°34' E 120°19'0 0.0
2018-Feb-21 05:28N 22°34' E 120°19'0 0.0
2018-Feb-21 04:58N 22°34' E 120°19'0 0.0
2018-Feb-21 04:28N 22°34' E 120°19'0 0.0
2018-Feb-21 03:58N 22°34' E 120°19'0 0.0
2018-Feb-21 03:28N 22°34' E 120°19'0 0.0
2018-Feb-21 02:58N 22°34' E 120°19'0 0.0
2018-Feb-21 02:22N 22°34' E 120°19'0 0.0
2018-Feb-21 01:58N 22°34' E 120°19'1 1.7
2018-Feb-21 01:30N 22°33' E 120°19'5 9.1
2018-Feb-21 01:00N 22°32' E 120°14'4 7.6
2018-Feb-21 00:31N 22°28' E 120°13'612.8
2018-Feb-21 00:00N 22°22' E 120°14'612.7
2018-Feb-20 23:31N 22°16' E 120°16'612.7
2018-Feb-20 23:00N 22°10' E 120°18'612.7
2018-Feb-20 22:31N 22°03' E 120°19'  

Dump ship's entire track history